Time;durP1;ratioP1;P1;durP2;ratioP2;P2;SDS_P1;SDS_P2;PMS_P1;PMS_P2;Temp;Humidity;BMP_temperature;BMP_pressure;BME280_temperature;BME280_humidity;BME280_pressure;Samples;Min_cycle;Max_cycle;Signal;HPM_P1;HPM_P2
2022/01/25 00:15:24;;;;;;;82.78;33.60;;;;;;;-7.35;70.84;102280.50;4501503;31;20151;-71
2022/01/25 00:26:34;;;;;;;82.70;33.38;;;;;;;-7.51;71.70;102273.09;4501495;31;20530;-70
2022/01/25 00:29:15;;;;;;;88.25;34.97;;;;;;;-7.31;71.45;102278.38;4501527;31;20110;-70
2022/01/25 00:31:43;;;;;;;86.22;35.92;;;;;;;-7.35;71.58;102278.88;4501668;31;20083;-70
2022/01/25 00:34:11;;;;;;;83.62;35.35;;;;;;;-7.62;72.92;102273.81;4501536;31;20187;-71
2022/01/25 00:36:38;;;;;;;82.07;35.60;;;;;;;-7.53;73.10;102264.37;4501359;31;20083;-70
2022/01/25 00:39:05;;;;;;;79.87;34.05;;;;;;;-7.60;73.51;102268.03;4501360;31;20452;-70
2022/01/25 00:41:33;;;;;;;75.00;29.58;;;;;;;-7.52;73.55;102276.44;4501511;31;20152;-70
2022/01/25 00:44:01;;;;;;;79.47;31.23;;;;;;;-7.47;73.56;102277.75;4501526;31;20084;-70
2022/01/25 00:46:29;;;;;;;70.57;30.37;;;;;;;-7.56;74.35;102276.91;4501259;31;20250;-70
2022/01/25 00:49:01;;;;;;;70.95;28.70;;;;;;;-8.07;77.04;102267.16;4501359;31;20774;-70
2022/01/25 00:54:04;;;;;;;61.20;26.23;;;;;;;-8.11;78.32;102270.19;4501432;31;20122;-70
2022/01/25 00:56:38;;;;;;;58.97;24.80;;;;;;;-7.99;77.07;102261.06;4501473;31;20824;-71
2022/01/25 00:59:08;;;;;;;63.67;25.35;;;;;;;-7.96;76.73;102270.69;4501271;31;20096;-71
2022/01/25 01:01:37;;;;;;;61.08;26.25;;;;;;;-7.62;75.92;102255.88;4486272;31;20117;-71
2022/01/25 01:04:06;;;;;;;65.80;27.15;;;;;;;-7.68;76.20;102255.31;4501140;31;20485;-71
2022/01/25 01:06:34;;;;;;;62.38;26.65;;;;;;;-7.48;75.57;102252.91;4501152;31;20087;-70
2022/01/25 01:09:02;;;;;;;69.57;27.25;;;;;;;-7.55;74.61;102248.00;4501186;31;20125;-71
2022/01/25 01:11:40;;;;;;;60.17;25.88;;;;;;;-7.64;74.38;102248.06;4501270;31;20075;-71
2022/01/25 01:14:19;;;;;;;62.00;25.85;;;;;;;-7.72;75.17;102249.03;4501205;31;20079;-71
2022/01/25 01:41:45;;;;;;;53.30;21.80;;;;;;;-7.15;73.40;102220.81;4500837;31;20428;-71
2022/01/25 01:44:27;;;;;;;50.55;21.00;;;;;;;-7.26;73.82;102223.31;4500806;31;20096;-71
2022/01/25 01:47:03;;;;;;;57.10;22.37;;;;;;;-7.28;73.98;102214.62;4500655;31;20098;-71
2022/01/25 01:49:38;;;;;;;56.55;21.15;;;;;;;-7.50;77.18;102206.66;4500571;31;20549;-71
2022/01/25 01:52:07;;;;;;;65.85;24.50;;;;;;;-7.58;76.29;102202.53;4500604;31;20140;-71
2022/01/25 01:54:35;;;;;;;63.83;24.77;;;;;;;-7.49;75.60;102210.13;4500492;31;20447;-71
2022/01/25 01:57:05;;;;;;;62.03;23.15;;;;;;;-7.55;75.82;102196.81;4500472;31;20396;-70
2022/01/25 01:59:33;;;;;;;64.68;24.37;;;;;;;-7.61;77.17;102194.56;4500416;31;20096;-70
2022/01/25 02:02:01;;;;;;;63.30;24.87;;;;;;;-7.58;75.97;102202.53;4500639;31;20517;-70
2022/01/25 02:04:29;;;;;;;58.33;25.00;;;;;;;-7.51;75.30;102193.75;4500418;31;20132;-70
2022/01/25 02:06:57;;;;;;;63.47;24.55;;;;;;;-7.33;74.41;102194.47;4500259;31;20122;-71
2022/01/25 02:09:24;;;;;;;65.72;26.33;;;;;;;-7.54;74.72;102194.38;4500278;31;20100;-71
2022/01/25 02:11:51;;;;;;;75.45;26.58;;;;;;;-7.80;76.19;102196.25;4500324;31;20130;-71
2022/01/25 02:14:18;;;;;;;65.45;25.00;;;;;;;-7.67;75.42;102190.56;4500165;31;20504;-70
2022/01/25 02:24:49;;;;;;;60.83;25.33;;;;;;;-6.90;72.34;102188.88;4500362;31;20098;-72
2022/01/25 02:27:17;;;;;;;57.62;23.30;;;;;;;-7.40;73.46;102181.91;4499954;31;20481;-72
2022/01/25 02:29:44;;;;;;;61.20;25.77;;;;;;;-7.32;74.22;102183.47;4499943;31;20092;-72
2022/01/25 02:32:12;;;;;;;59.92;23.38;;;;;;;-7.59;75.58;102170.03;4499865;31;20100;-72
2022/01/25 02:34:39;;;;;;;57.38;23.50;;;;;;;-7.32;74.56;102166.44;4499912;31;20088;-72
2022/01/25 02:37:12;;;;;;;56.65;23.25;;;;;;;-7.38;74.68;102162.47;4501608;31;20125;-71
2022/01/25 02:39:42;;;;;;;55.25;24.40;;;;;;;-7.36;74.96;102164.38;4502513;31;20548;-70
2022/01/25 02:42:12;;;;;;;56.47;25.12;;;;;;;-7.30;74.31;102161.47;4502341;31;20134;-70
2022/01/25 02:44:42;;;;;;;57.38;24.10;;;;;;;-7.55;74.86;102159.28;4502237;31;20099;-71
2022/01/25 02:49:56;;;;;;;58.28;24.37;;;;;;;-7.83;75.62;102138.03;4502463;31;20588;-71
2022/01/25 02:52:24;;;;;;;48.97;21.33;;;;;;;-7.93;76.06;102136.28;4502187;31;20104;-71
2022/01/25 02:54:52;;;;;;;49.95;22.42;;;;;;;-7.70;75.71;102137.47;4502409;31;20102;-70
2022/01/25 02:57:20;;;;;;;54.25;22.08;;;;;;;-7.71;76.15;102133.09;4502151;31;20113;-71
2022/01/25 02:59:47;;;;;;;56.83;24.20;;;;;;;-7.65;75.19;102137.88;4502214;31;20462;-71
2022/01/25 03:02:15;;;;;;;58.28;22.65;;;;;;;-8.03;76.89;102140.44;4502130;31;20119;-70
2022/01/25 03:04:42;;;;;;;64.53;23.40;;;;;;;-8.10;77.05;102148.31;4502165;31;20087;-70
2022/01/25 03:07:10;;;;;;;64.10;25.80;;;;;;;-7.93;76.33;102141.41;4501977;31;20100;-71
2022/01/25 03:09:39;;;;;;;65.30;27.48;;;;;;;-7.99;76.60;102145.06;4502104;31;20460;-70
2022/01/25 03:12:10;;;;;;;66.82;26.40;;;;;;;-7.86;75.90;102140.31;4502060;31;20151;-70
2022/01/25 03:14:57;;;;;;;68.30;27.30;;;;;;;-7.82;75.62;102142.37;4502019;31;20113;-70
2022/01/25 03:17:28;;;;;;;70.13;28.77;;;;;;;-7.71;75.57;102143.31;4502044;31;20502;-71
2022/01/25 03:20:06;;;;;;;64.85;26.08;;;;;;;-7.77;75.65;102130.91;4502051;31;20095;-70
2022/01/25 03:22:56;;;;;;;61.53;25.48;;;;;;;-7.39;73.57;102132.47;4502033;31;20096;-70
2022/01/25 03:25:26;;;;;;;58.80;23.45;;;;;;;-7.80;75.48;102128.06;4501908;31;20111;-71
2022/01/25 03:27:53;;;;;;;55.67;22.62;;;;;;;-7.72;75.05;102127.06;4502022;31;20092;-71
2022/01/25 03:30:20;;;;;;;56.65;21.27;;;;;;;-7.68;75.10;102125.69;4502170;31;20121;-71
2022/01/25 03:32:48;;;;;;;53.92;22.25;;;;;;;-7.65;75.95;102112.28;4501759;31;20095;-71
2022/01/25 03:35:15;;;;;;;47.30;20.00;;;;;;;-7.75;76.81;102110.56;4501994;31;20076;-70
2022/01/25 03:37:42;;;;;;;42.60;19.70;;;;;;;-7.84;77.37;102110.66;4501833;31;20122;-70
2022/01/25 03:40:10;;;;;;;50.55;22.73;;;;;;;-7.84;77.69;102107.19;4501801;31;20427;-71
2022/01/25 03:42:39;;;;;;;55.45;22.25;;;;;;;-7.82;77.53;102109.09;4501820;31;20472;-70
2022/01/25 03:45:08;;;;;;;53.42;22.77;;;;;;;-7.89;77.66;102105.88;4501942;31;20107;-70
2022/01/25 03:47:46;;;;;;;52.78;22.33;;;;;;;-7.90;77.78;102106.62;4501515;31;20547;-70
2022/01/25 03:50:13;;;;;;;52.80;22.35;;;;;;;-8.14;79.13;102107.87;4501819;31;20490;-71
2022/01/25 03:52:40;;;;;;;57.40;22.60;;;;;;;-8.09;78.83;102097.31;4501728;31;20541;-70
2022/01/25 03:55:08;;;;;;;52.03;21.65;;;;;;;-8.25;79.74;102100.13;4502069;31;20505;-71
2022/01/25 03:57:35;;;;;;;44.58;20.98;;;;;;;-8.23;79.89;102092.62;4501764;31;20134;-70
2022/01/25 04:00:04;;;;;;;45.58;19.83;;;;;;;-8.23;80.02;102096.06;4501668;31;20095;-70
2022/01/25 04:02:45;;;;;;;48.85;19.52;;;;;;;-8.10;79.61;102092.03;4501757;31;20092;-70
2022/01/25 04:05:20;;;;;;;52.27;20.93;;;;;;;-7.85;78.39;102088.34;4501752;31;20499;-71
2022/01/25 04:07:50;;;;;;;49.53;21.08;;;;;;;-7.95;78.84;102086.66;4501610;31;20162;-70
2022/01/25 04:10:19;;;;;;;43.90;19.92;;;;;;;-7.84;78.48;102079.94;4501615;31;20162;-70
2022/01/25 04:12:47;;;;;;;43.30;19.15;;;;;;;-7.56;77.17;102080.72;4501692;31;20120;-70
2022/01/25 04:15:15;;;;;;;52.30;19.92;;;;;;;-7.46;76.43;102075.59;4501622;31;20096;-71
2022/01/25 04:17:46;;;;;;;41.10;18.58;;;;;;;-7.18;74.92;102074.56;4501830;31;20080;-71
2022/01/25 04:20:19;;;;;;;45.00;19.17;;;;;;;-7.15;75.62;102060.34;4501582;31;20460;-71
2022/01/25 04:25:32;;;;;;;48.15;20.92;;;;;;;-6.78;73.87;102063.50;4501628;31;20079;-71
2022/01/25 04:28:00;;;;;;;48.40;19.60;;;;;;;-6.80;73.55;102053.09;4501426;31;20171;-70
2022/01/25 04:30:27;;;;;;;49.70;19.62;;;;;;;-6.65;73.17;102052.56;4501519;31;20123;-71
2022/01/25 04:33:01;;;;;;;51.08;21.80;;;;;;;-6.60;72.65;102051.31;4501383;31;20171;-71
2022/01/25 04:54:42;;;;;;;61.88;23.12;;;;;;;-6.70;72.63;102029.13;4502110;31;20100;-70
2022/01/25 05:00:12;;;;;;;56.28;22.98;;;;;;;-6.60;73.14;102026.56;4500306;31;20096;-70
2022/01/25 05:05:19;;;;;;;50.00;22.75;;;;;;;-6.65;73.29;102009.91;4501453;31;20509;-70
2022/01/25 05:07:55;;;;;;;;;;;;;;;-6.61;73.50;102001.69;4501446;31;20426;-70
2022/01/25 05:10:23;;;;;;;56.90;23.30;;;;;;;-6.84;74.10;102004.03;4502048;31;20022;-71
2022/01/25 05:13:11;;;;;;;56.13;22.95;;;;;;;-6.80;74.18;102009.53;4501144;31;20092;-70
2022/01/25 05:23:27;;;;;;;51.72;20.33;;;;;;;-6.50;73.82;101992.34;4501590;31;20118;-70
2022/01/25 05:25:55;;;;;;;50.60;20.95;;;;;;;-6.43;73.56;101992.06;4501626;31;20164;-70
2022/01/25 05:28:22;;;;;;;50.60;20.67;;;;;;;-6.31;73.62;101990.50;4501597;31;20072;-70
2022/01/25 05:30:50;;;;;;;50.90;21.17;;;;;;;-6.16;73.04;101995.97;4501238;31;20087;-70
2022/01/25 05:33:17;;;;;;;51.80;22.50;;;;;;;-6.15;72.99;101992.63;4500837;31;20100;-71
2022/01/25 05:35:45;;;;;;;52.33;21.70;;;;;;;-6.19;73.88;101987.13;4499420;31;20485;-71
2022/01/25 05:38:12;;;;;;;55.97;22.08;;;;;;;-6.24;73.85;101985.87;4499609;31;20482;-71
2022/01/25 05:48:17;;;;;;;54.65;22.55;;;;;;;-6.38;75.07;101983.06;4499236;31;20111;-70
2022/01/25 05:50:45;;;;;;;62.90;25.42;;;;;;;-6.29;74.65;101982.91;4499389;31;20099;-71
2022/01/25 05:53:12;;;;;;;67.05;26.35;;;;;;;-6.44;75.01;101980.00;4499770;31;20553;-70
2022/01/25 05:55:39;;;;;;;74.62;27.75;;;;;;;-6.66;75.42;101982.47;4500573;31;20100;-71
2022/01/25 05:58:07;;;;;;;70.37;28.55;;;;;;;-6.88;76.35;101987.50;4500357;31;20154;-71
2022/01/25 06:00:34;;;;;;;62.90;25.25;;;;;;;-6.82;76.28;101980.31;4500443;31;20091;-70
2022/01/25 06:03:04;;;;;;;63.87;26.05;;;;;;;-6.81;76.52;101981.22;4500370;31;20162;-70
2022/01/25 06:05:33;;;;;;;59.25;24.17;;;;;;;-6.69;76.20;101977.09;4500470;31;20126;-70
2022/01/25 06:08:00;;;;;;;62.95;26.02;;;;;;;-6.79;76.65;101988.25;4500228;31;20474;-71
2022/01/25 06:10:28;;;;;;;57.30;24.98;;;;;;;-6.89;77.47;101985.72;4501161;31;20586;-70
2022/01/25 06:12:55;;;;;;;63.35;26.55;;;;;;;-7.06;78.61;101973.16;4502224;31;20095;-71
2022/01/25 06:15:22;;;;;;;59.25;26.98;;;;;;;-6.87;78.25;101976.47;4502268;31;20133;-70
2022/01/25 06:17:50;;;;;;;59.05;24.75;;;;;;;-6.79;77.77;101972.84;4501458;31;20548;-70
2022/01/25 06:20:18;;;;;;;60.78;24.98;;;;;;;-6.71;77.78;101976.09;4502471;31;20356;-71
2022/01/25 06:22:45;;;;;;;58.28;25.45;;;;;;;-6.61;77.21;101970.03;4502265;31;20122;-71
2022/01/25 06:25:13;;;;;;;59.40;26.25;;;;;;;-6.73;78.44;101967.34;4502578;31;20108;-70
2022/01/25 06:27:42;;;;;;;68.45;25.77;;;;;;;-6.59;78.17;101961.69;4502422;31;20088;-71
2022/01/25 06:30:13;;;;;;;58.67;24.83;;;;;;;-6.56;77.88;101961.06;4502696;31;20968;-70
2022/01/25 06:32:41;;;;;;;60.10;24.58;;;;;;;-6.53;77.84;101961.31;4501960;31;20103;-71
2022/01/25 06:35:09;;;;;;;56.30;23.55;;;;;;;-6.43;77.69;101962.94;4502298;31;20123;-72
2022/01/25 06:37:36;;;;;;;55.80;25.02;;;;;;;-6.21;77.25;101965.59;4502137;31;20075;-73
2022/01/25 06:40:06;;;;;;;58.87;25.27;;;;;;;-6.14;76.66;101957.62;4502327;31;20135;-73
2022/01/25 06:42:34;;;;;;;52.33;24.55;;;;;;;-6.13;76.73;101957.72;4502757;31;20476;-71
2022/01/25 06:45:06;;;;;;;55.67;24.95;;;;;;;-5.98;76.67;101960.62;4502114;31;20512;-70
2022/01/25 06:47:33;;;;;;;58.10;24.73;;;;;;;-6.08;77.06;101959.00;4502151;31;20091;-71
2022/01/25 06:50:00;;;;;;;63.95;26.02;;;;;;;-6.06;77.32;101967.72;4501459;31;20088;-73
2022/01/25 06:52:28;;;;;;;62.17;26.83;;;;;;;-6.07;77.41;101968.50;4500629;31;20466;-73
2022/01/25 06:54:55;;;;;;;67.62;28.38;;;;;;;-6.19;78.13;101964.91;4500684;31;20104;-73
2022/01/25 06:57:22;;;;;;;71.07;29.17;;;;;;;-6.04;77.86;101958.47;4500634;31;20861;-71
2022/01/25 06:59:49;;;;;;;66.87;27.85;;;;;;;-6.07;77.78;101954.78;4500404;31;20467;-71
2022/01/25 07:02:16;;;;;;;78.30;30.33;;;;;;;-6.08;78.18;101959.00;4500819;31;20182;-71
2022/01/25 07:04:44;;;;;;;66.37;27.75;;;;;;;-5.98;78.07;101949.47;4501533;31;20122;-71
2022/01/25 07:07:11;;;;;;;83.28;32.50;;;;;;;-5.81;77.46;101949.97;4501850;31;20555;-71
2022/01/25 07:09:38;;;;;;;76.30;30.33;;;;;;;-5.85;77.64;101947.06;4502074;31;20630;-70
2022/01/25 07:12:06;;;;;;;86.22;33.58;;;;;;;-5.63;77.11;101952.19;4502172;31;20100;-71
2022/01/25 07:14:33;;;;;;;88.25;34.08;;;;;;;-5.79;77.59;101948.44;4501817;31;20104;-71
2022/01/25 07:17:01;;;;;;;77.97;30.75;;;;;;;-5.84;78.00;101933.44;4501037;31;20092;-71
2022/01/25 07:19:28;;;;;;;83.45;34.00;;;;;;;-5.72;77.96;101938.63;4501794;31;20435;-71
2022/01/25 07:21:55;;;;;;;77.90;31.50;;;;;;;-5.52;77.58;101946.22;4501263;31;20119;-71
2022/01/25 07:24:23;;;;;;;80.00;30.40;;;;;;;-5.33;76.79;101951.13;4501987;31;20145;-71
2022/01/25 07:26:50;;;;;;;72.25;30.02;;;;;;;-5.31;76.63;101947.88;4501697;31;20623;-71
2022/01/25 07:29:25;;;;;;;75.95;30.15;;;;;;;-5.23;76.45;101952.69;4502046;31;20132;-71
2022/01/25 07:31:52;;;;;;;79.75;30.88;;;;;;;-5.23;76.25;101943.34;4501610;31;20091;-71
2022/01/25 07:34:28;;;;;;;76.30;29.20;;;;;;;-5.31;76.45;101939.28;4501333;31;20496;-71
2022/01/25 07:37:07;;;;;;;73.80;28.20;;;;;;;-5.20;76.66;101937.53;4501910;31;20401;-71
2022/01/25 07:39:44;;;;;;;84.25;28.87;;;;;;;-5.07;75.75;101945.41;4502036;31;20076;-71
2022/01/25 07:42:18;;;;;;;63.92;25.40;;;;;;;-5.12;76.11;101939.91;4501720;31;20500;-71
2022/01/25 07:44:48;;;;;;;60.33;25.92;;;;;;;-4.94;75.46;101957.50;4500811;31;20088;-71
2022/01/25 07:47:18;;;;;;;65.18;24.55;;;;;;;-4.74;74.99;101951.28;4501819;31;20102;-71
2022/01/25 07:49:57;;;;;;;64.32;25.60;;;;;;;-4.61;74.88;101953.97;4499506;31;20130;-71
2022/01/25 07:52:24;;;;;;;67.95;26.20;;;;;;;-4.49;73.96;101951.41;4493811;31;20167;-71
2022/01/25 07:54:51;;;;;;;74.12;26.98;;;;;;;-4.64;75.04;101944.34;4493868;31;20174;-71
2022/01/25 07:57:18;;;;;;;72.75;25.12;;;;;;;-4.63;74.84;101945.25;4493023;31;20083;-71
2022/01/25 07:59:45;;;;;;;65.05;25.62;;;;;;;-4.64;75.86;101948.59;4494025;31;20123;-71
2022/01/25 08:02:16;;;;;;;65.93;24.52;;;;;;;-4.62;75.70;101949.63;4475587;31;20439;-71
2022/01/25 08:05:01;;;;;;;75.65;25.33;;;;;;;-4.45;75.69;101949.19;4481787;31;20101;-72
2022/01/25 08:07:42;;;;;;;76.37;27.80;;;;;;;-4.13;74.37;101950.66;4466120;31;20103;-73
2022/01/25 08:10:13;;;;;;;74.70;26.40;;;;;;;-4.20;74.77;101933.88;4493107;31;20119;-73
2022/01/25 08:13:17;;;;;;;71.82;25.48;;;;;;;-4.24;75.07;101937.00;4500621;31;20107;-71
2022/01/25 08:16:01;;;;;;;63.08;24.83;;;;;;;-4.03;74.87;101937.63;4501313;31;20160;-71
2022/01/25 08:18:30;;;;;;;59.22;24.75;;;;;;;-3.91;74.60;101933.38;4501518;31;20122;-71
2022/01/25 08:20:57;;;;;;;69.07;26.20;;;;;;;-4.00;74.99;101926.66;4501377;31;20147;-71
2022/01/25 08:23:38;;;;;;;62.13;26.65;;;;;;;-4.05;75.73;101925.44;4501629;31;20450;-71
2022/01/25 08:26:23;;;;;;;65.70;26.17;;;;;;;-4.04;75.90;101928.13;4501664;31;20558;-71
2022/01/25 08:29:08;;;;;;;65.43;25.50;;;;;;;-3.82;75.54;101924.50;4494686;31;20466;-71
2022/01/25 08:31:38;;;;;;;62.65;23.15;;;;;;;-3.67;75.70;101905.88;4499004;31;20091;-71
2022/01/25 08:34:32;;;;;;;50.53;20.80;;;;;;;-3.53;75.06;101901.69;4435144;32;20131;-71
2022/01/25 08:37:14;;;;;;;48.63;19.95;;;;;;;-3.55;75.16;101902.34;4434827;32;20256;-71
2022/01/25 08:39:44;;;;;;;47.62;19.98;;;;;;;-3.24;74.62;101905.34;4435308;32;20176;-71
2022/01/25 08:42:25;;;;;;;51.10;20.25;;;;;;;-3.03;73.74;101906.81;4434833;32;20158;-71
2022/01/25 08:44:55;;;;;;;52.17;20.42;;;;;;;-2.97;73.64;101906.31;4435204;32;20607;-71
2022/01/25 08:47:24;;;;;;;49.28;19.05;;;;;;;-3.01;73.59;101905.19;4420400;32;20615;-71
2022/01/25 08:50:01;;;;;;;41.50;16.35;;;;;;;-2.71;72.67;101890.87;4418899;32;20152;-71
2022/01/25 08:52:42;;;;;;;40.10;16.02;;;;;;;-2.70;72.78;101891.78;4419562;32;20093;-71
2022/01/25 08:55:30;;;;;;;43.17;16.35;;;;;;;-2.63;72.73;101895.66;4417999;32;20220;-71
2022/01/25 08:58:06;;;;;;;44.65;18.25;;;;;;;-2.14;71.40;101898.81;4421461;32;20144;-71
2022/01/25 09:00:34;;;;;;;38.03;15.82;;;;;;;-1.97;70.29;101896.50;4418552;32;20480;-71
2022/01/25 09:03:01;;;;;;;39.40;16.25;;;;;;;-1.83;69.83;101899.94;4418323;32;20101;-71
2022/01/25 09:05:29;;;;;;;41.37;15.73;;;;;;;-1.57;69.41;101898.97;4419503;32;20169;-71
2022/01/25 09:07:58;;;;;;;36.88;15.93;;;;;;;-1.80;69.96;101900.16;4419835;32;20173;-71
2022/01/25 09:10:26;;;;;;;40.60;16.27;;;;;;;-1.53;69.45;101910.38;4452808;31;20145;-71
2022/01/25 09:12:54;;;;;;;46.35;15.30;;;;;;;-1.15;68.16;101909.22;4483688;31;20482;-71
2022/01/25 09:15:22;;;;;;;41.37;16.20;;;;;;;-1.48;69.11;101912.47;4483801;31;20152;-71
2022/01/25 09:17:50;;;;;;;36.38;15.73;;;;;;;-1.30;68.82;101909.22;4484499;31;20744;-71
2022/01/25 09:20:17;;;;;;;40.05;17.30;;;;;;;-0.97;68.41;101908.63;4484809;31;20087;-73
2022/01/25 09:22:44;;;;;;;42.35;18.20;;;;;;;-0.93;68.01;101903.63;4484758;31;20760;-72
2022/01/25 09:25:27;;;;;;;43.17;15.77;;;;;;;-0.84;67.79;101899.00;4485365;31;20100;-71
2022/01/25 09:27:55;;;;;;;45.67;17.87;;;;;;;-0.82;67.44;101897.38;4485442;31;20167;-71
2022/01/25 09:30:23;;;;;;;49.30;19.05;;;;;;;-0.66;67.52;101897.47;4486040;31;20083;-71
2022/01/25 09:32:50;;;;;;;42.60;15.65;;;;;;;-0.97;68.75;101898.28;4484941;31;20096;-71
2022/01/25 09:35:18;;;;;;;38.00;16.08;;;;;;;-0.83;69.00;101887.84;4491993;31;20459;-71
2022/01/25 09:37:46;;;;;;;40.75;16.95;;;;;;;-0.62;67.87;101880.44;4477202;31;20104;-71
2022/01/25 09:40:14;;;;;;;50.92;18.87;;;;;;;-0.57;67.68;101889.34;4490204;31;20408;-71
2022/01/25 09:42:42;;;;;;;40.17;17.55;;;;;;;-0.50;68.23;101876.81;4490814;31;20104;-71
2022/01/25 09:45:12;;;;;;;53.03;18.45;;;;;;;-0.90;69.35;101877.94;4492098;31;20116;-74
2022/01/25 09:47:40;;;;;;;43.25;18.48;;;;;;;-0.57;68.69;101858.28;4478679;31;20537;-72
2022/01/25 09:50:07;;;;;;;49.55;18.70;;;;;;;-0.63;69.25;101857.94;4494225;31;20436;-74
2022/01/25 09:52:35;;;;;;;45.12;18.52;;;;;;;-0.22;67.88;101860.25;4501719;31;20092;-72
2022/01/25 09:55:09;;;;;;;42.03;17.55;;;;;;;-0.23;68.78;101857.59;4502421;31;20119;-72
2022/01/25 09:57:37;;;;;;;44.42;17.45;;;;;;;0.03;67.68;101856.41;4502259;31;20473;-71
2022/01/25 10:00:08;;;;;;;41.08;16.12;;;;;;;-0.05;67.52;101849.09;4501419;31;20130;-71
2022/01/25 10:02:52;;;;;;;39.80;16.77;;;;;;;0.14;67.71;101850.09;4494434;31;20657;-71
2022/01/25 10:05:31;;;;;;;48.97;18.45;;;;;;;0.22;67.55;101843.66;4494718;31;20092;-72
2022/01/25 10:08:25;;;;;;;43.15;17.37;;;;;;;-0.09;67.87;101839.41;4494537;31;20978;-72
2022/01/25 10:11:03;;;;;;;45.72;19.05;;;;;;;0.14;67.69;101847.50;4498966;31;20087;-71
2022/01/25 10:13:35;;;;;;;44.75;19.02;;;;;;;0.27;67.75;101830.91;4502387;31;20409;-70
2022/01/25 10:16:04;;;;;;;41.63;16.95;;;;;;;0.31;67.38;101831.16;4502009;31;20100;-71
2022/01/25 10:18:53;;;;;;;39.53;17.83;;;;;;;0.39;67.36;101832.47;4502224;31;20122;-70
2022/01/25 10:21:25;;;;;;;44.63;16.70;;;;;;;0.17;68.25;101826.94;4502209;31;20079;-71
2022/01/25 10:24:01;;;;;;;36.75;17.25;;;;;;;0.60;66.79;101824.00;4496014;31;20462;-71
2022/01/25 10:26:34;;;;;;;44.75;17.12;;;;;;;0.48;67.31;101824.25;4493411;31;20494;-71
2022/01/25 10:29:22;;;;;;;46.53;17.92;;;;;;;0.95;65.82;101815.41;4492649;31;20084;-71
2022/01/25 10:32:09;;;;;;;42.90;18.27;;;;;;;1.01;66.57;101820.91;4493207;31;20147;-71
2022/01/25 10:34:47;;;;;;;47.85;18.58;;;;;;;1.06;65.64;101827.25;4495912;31;20223;-71
2022/01/25 10:37:17;;;;;;;52.33;20.12;;;;;;;1.44;65.00;101813.50;4502749;31;20087;-71
2022/01/25 10:39:51;;;;;;;49.33;18.80;;;;;;;2.01;63.08;101804.88;4502974;31;20799;-71
2022/01/25 10:42:20;;;;;;;47.40;18.60;;;;;;;1.96;62.70;101807.28;4502239;31;20089;-71
2022/01/25 10:45:09;;;;;;;48.87;19.67;;;;;;;2.30;62.61;101806.22;4502466;31;20142;-70
2022/01/25 10:47:36;;;;;;;36.72;18.65;;;;;;;2.43;61.69;101812.81;4502216;31;20133;-71
2022/01/25 10:50:31;;;;;;;42.53;18.12;;;;;;;1.96;62.58;101811.59;4483655;31;20165;-71
2022/01/25 10:53:04;;;;;;;42.08;18.05;;;;;;;2.37;61.61;101809.13;4492445;31;20116;-71
2022/01/25 10:55:43;;;;;;;40.50;16.17;;;;;;;1.65;64.37;101799.75;4494368;31;20454;-71
2022/01/25 10:58:12;;;;;;;43.63;20.20;;;;;;;2.13;62.47;101792.44;4476913;31;20103;-71
2022/01/25 11:00:43;;;;;;;35.70;16.10;;;;;;;2.53;61.81;101789.00;4489941;31;20534;-71
2022/01/25 11:03:23;;;;;;;42.13;17.05;;;;;;;2.29;61.79;101796.59;4485372;31;20462;-71
2022/01/25 11:05:51;;;;;;;37.58;16.02;;;;;;;2.34;62.06;101792.50;4486221;31;20100;-70
2022/01/25 11:08:21;;;;;;;37.05;17.67;;;;;;;2.14;62.94;101787.31;4485193;31;20172;-71
2022/01/25 11:11:00;;;;;;;36.67;16.87;;;;;;;2.51;62.20;101786.34;4486945;31;20103;-71
2022/01/25 11:13:36;;;;;;;37.15;17.25;;;;;;;2.88;60.99;101786.16;4486992;31;20096;-71
2022/01/25 11:16:12;;;;;;;33.35;16.12;;;;;;;2.43;62.63;101779.00;4486104;31;20436;-71
2022/01/25 11:18:40;;;;;;;38.75;16.67;;;;;;;2.80;61.43;101782.37;4486268;31;20491;-71
2022/01/25 11:21:10;;;;;;;37.58;16.83;;;;;;;2.59;62.27;101787.53;4486899;31;20163;-71
2022/01/25 11:23:40;;;;;;;38.47;17.25;;;;;;;2.08;63.55;101786.13;4486601;31;20134;-71
2022/01/25 11:26:11;;;;;;;37.17;16.55;;;;;;;2.55;62.78;101775.22;4486387;31;20100;-71
2022/01/25 11:28:39;;;;;;;39.58;16.80;;;;;;;2.41;63.15;101778.06;4484474;31;20080;-71
2022/01/25 11:31:12;;;;;;;34.83;16.98;;;;;;;2.67;62.97;101767.06;4491122;31;20276;-70
2022/01/25 11:33:44;;;;;;;41.17;17.08;;;;;;;3.25;60.73;101768.53;4492968;31;20440;-71
2022/01/25 11:36:11;;;;;;;43.08;17.25;;;;;;;3.16;61.07;101773.41;4490618;31;20448;-71
2022/01/25 11:38:51;;;;;;;40.60;17.87;;;;;;;3.26;61.14;101759.94;4486033;31;20424;-71
2022/01/25 11:41:22;;;;;;;39.63;16.30;;;;;;;3.91;59.42;101753.75;4486052;31;20092;-71
2022/01/25 11:44:09;;;;;;;37.28;17.30;;;;;;;3.80;59.44;101739.41;4470334;31;20088;-71
2022/01/25 11:46:38;;;;;;;38.35;17.15;;;;;;;4.44;58.80;101743.47;4484766;31;20080;-71
2022/01/25 11:49:14;;;;;;;37.47;16.75;;;;;;;4.47;57.68;101744.44;4486059;31;20482;-71
2022/01/25 11:51:43;;;;;;;33.85;15.88;;;;;;;5.01;56.99;101746.25;4485560;31;20168;-71
2022/01/25 11:54:10;;;;;;;37.08;18.55;;;;;;;5.14;55.34;101744.94;4485559;31;20088;-71
2022/01/25 11:56:40;;;;;;;36.38;17.65;;;;;;;5.07;56.49;101740.34;4484275;31;20104;-71
2022/01/25 11:59:12;;;;;;;33.92;17.27;;;;;;;5.69;55.75;101741.41;4484178;31;20138;-71
2022/01/25 12:01:39;;;;;;;34.38;15.13;;;;;;;6.62;52.58;101743.16;4488120;31;20858;-71
2022/01/25 12:04:11;;;;;;;32.13;14.87;;;;;;;6.06;53.04;101730.31;4484656;31;20440;-71
2022/01/25 12:06:44;;;;;;;34.70;15.68;;;;;;;5.90;53.90;101723.75;4487228;31;20123;-71
2022/01/25 12:09:42;;;;;;;33.33;14.93;;;;;;;5.37;55.42;101727.34;4499401;31;20099;-71
2022/01/25 12:12:11;;;;;;;33.13;14.83;;;;;;;4.70;58.04;101713.94;4493176;31;20169;-71
2022/01/25 12:14:40;;;;;;;36.22;16.02;;;;;;;4.07;59.71;101718.69;4494181;31;20091;-71
2022/01/25 12:17:11;;;;;;;33.70;16.37;;;;;;;3.62;61.23;101707.47;4493479;31;20156;-71
2022/01/25 12:19:44;;;;;;;31.08;15.30;;;;;;;3.89;61.50;101704.97;4473007;31;20100;-71
2022/01/25 12:25:33;;;;;;;29.60;14.48;;;;;;;3.98;60.91;101706.19;4493023;31;20083;-71
2022/01/25 12:28:08;;;;;;;39.58;17.10;;;;;;;3.81;61.44;101699.47;4492878;31;20118;-71
2022/01/25 12:30:40;;;;;;;43.87;14.40;;;;;;;3.62;62.55;101697.91;4493203;31;20096;-72
2022/01/25 12:33:19;;;;;;;32.25;14.40;;;;;;;3.74;62.11;101692.25;4491352;31;20129;-71
2022/01/25 12:36:03;;;;;;;33.45;14.43;;;;;;;3.60;62.75;101696.94;4481289;31;20126;-71
2022/01/25 12:38:45;;;;;;;38.65;15.90;;;;;;;3.67;63.03;101693.75;4494012;31;20731;-73
2022/01/25 12:41:18;;;;;;;39.67;16.95;;;;;;;3.50;63.16;101693.12;4493860;31;20428;-71
2022/01/25 12:43:50;;;;;;;32.15;15.68;;;;;;;3.38;63.76;101683.97;4491936;31;20507;-71
2022/01/25 12:46:21;;;;;;;35.30;14.13;;;;;;;3.18;64.38;101678.88;4493803;31;20075;-71
2022/01/25 12:48:50;;;;;;;27.33;13.60;;;;;;;3.17;64.71;101669.28;4492794;31;20084;-72
2022/01/25 12:51:28;;;;;;;31.12;15.25;;;;;;;2.88;65.47;101669.03;4493530;31;20123;-72
2022/01/25 12:53:59;;;;;;;33.17;15.73;;;;;;;3.03;66.20;101675.66;4490317;31;20096;-72
2022/01/25 12:56:28;;;;;;;38.58;14.98;;;;;;;4.00;63.17;101674.97;4493303;31;20091;-72
2022/01/25 12:59:02;;;;;;;32.65;14.05;;;;;;;4.85;60.20;101673.47;4492067;31;20100;-72
2022/01/25 13:01:30;;;;;;;39.30;15.45;;;;;;;4.71;60.12;101673.91;4493106;31;20169;-72
2022/01/25 13:04:03;;;;;;;39.17;14.15;;;;;;;4.31;61.07;101667.37;4494610;31;20111;-72
2022/01/25 13:06:33;;;;;;;35.40;15.50;;;;;;;3.89;62.58;101658.03;4494232;31;20088;-72
2022/01/25 13:09:16;;;;;;;38.05;15.77;;;;;;;3.64;63.75;101651.97;4492183;31;20483;-71
2022/01/25 13:17:25;;;;;;;30.35;13.57;;;;;;;3.66;64.33;101641.56;4485931;31;20087;-72
2022/01/25 13:20:01;;;;;;;33.10;14.43;;;;;;;3.41;65.29;101631.97;4487640;31;20156;-72
2022/01/25 13:22:38;;;;;;;34.15;15.40;;;;;;;3.22;66.48;101627.81;4494175;31;20141;-72
2022/01/25 13:25:14;;;;;;;;;;;;;;;3.81;65.40;101624.75;4486374;31;21036;-71